sensor_id;sensor_type;location;lat;lon;timestamp;temperature;humidity
14529;DHT22;7351;51.194;4.098;2023-04-25T00:02:14;17.70;99.90
14529;DHT22;7351;51.194;4.098;2023-04-25T00:04:40;17.70;99.90
14529;DHT22;7351;51.194;4.098;2023-04-25T00:07:09;17.70;99.90
14529;DHT22;7351;51.194;4.098;2023-04-25T00:09:36;17.70;99.90
14529;DHT22;7351;51.194;4.098;2023-04-25T00:12:03;17.70;99.90
14529;DHT22;7351;51.194;4.098;2023-04-25T00:14:30;17.70;99.90
14529;DHT22;7351;51.194;4.098;2023-04-25T00:16:59;17.60;99.90
14529;DHT22;7351;51.194;4.098;2023-04-25T00:19:26;17.60;99.90
14529;DHT22;7351;51.194;4.098;2023-04-25T00:21:54;17.60;99.90
14529;DHT22;7351;51.194;4.098;2023-04-25T00:24:22;17.60;99.90
14529;DHT22;7351;51.194;4.098;2023-04-25T00:26:49;17.60;99.90
14529;DHT22;7351;51.194;4.098;2023-04-25T00:29:16;17.60;99.90
14529;DHT22;7351;51.194;4.098;2023-04-25T00:31:43;17.50;99.90
14529;DHT22;7351;51.194;4.098;2023-04-25T00:34:10;17.50;99.90
14529;DHT22;7351;51.194;4.098;2023-04-25T00:36:37;17.60;99.90
14529;DHT22;7351;51.194;4.098;2023-04-25T00:39:04;17.50;99.90
14529;DHT22;7351;51.194;4.098;2023-04-25T00:41:33;17.50;99.90
14529;DHT22;7351;51.194;4.098;2023-04-25T00:44:01;17.50;99.90
14529;DHT22;7351;51.194;4.098;2023-04-25T00:46:29;17.50;99.90
14529;DHT22;7351;51.194;4.098;2023-04-25T00:48:56;17.50;99.90
14529;DHT22;7351;51.194;4.098;2023-04-25T00:51:24;17.50;99.90
14529;DHT22;7351;51.194;4.098;2023-04-25T00:53:52;17.50;99.90
14529;DHT22;7351;51.194;4.098;2023-04-25T00:56:19;17.50;99.90
14529;DHT22;7351;51.194;4.098;2023-04-25T00:58:50;17.50;99.90
14529;DHT22;7351;51.194;4.098;2023-04-25T01:01:19;17.50;99.90
14529;DHT22;7351;51.194;4.098;2023-04-25T01:03:46;17.50;99.90
14529;DHT22;7351;51.194;4.098;2023-04-25T01:06:16;17.50;99.90
14529;DHT22;7351;51.194;4.098;2023-04-25T01:08:43;17.50;99.90
14529;DHT22;7351;51.194;4.098;2023-04-25T01:11:10;17.50;99.90
14529;DHT22;7351;51.194;4.098;2023-04-25T01:13:37;17.60;99.90
14529;DHT22;7351;51.194;4.098;2023-04-25T01:16:06;17.50;99.90
14529;DHT22;7351;51.194;4.098;2023-04-25T01:18:33;17.50;99.90
14529;DHT22;7351;51.194;4.098;2023-04-25T01:21:08;17.50;99.90
14529;DHT22;7351;51.194;4.098;2023-04-25T01:23:36;17.50;99.90
14529;DHT22;7351;51.194;4.098;2023-04-25T01:26:04;17.50;99.90
14529;DHT22;7351;51.194;4.098;2023-04-25T01:28:33;17.50;99.90
14529;DHT22;7351;51.194;4.098;2023-04-25T01:31:01;17.50;99.90
14529;DHT22;7351;51.194;4.098;2023-04-25T01:33:30;17.50;99.90
14529;DHT22;7351;51.194;4.098;2023-04-25T01:35:57;17.50;99.90
14529;DHT22;7351;51.194;4.098;2023-04-25T01:38:25;17.50;99.90
14529;DHT22;7351;51.194;4.098;2023-04-25T01:40:53;17.50;99.90
14529;DHT22;7351;51.194;4.098;2023-04-25T01:43:21;17.40;99.90
14529;DHT22;7351;51.194;4.098;2023-04-25T01:45:50;17.40;99.90
14529;DHT22;7351;51.194;4.098;2023-04-25T01:48:17;17.40;99.90
14529;DHT22;7351;51.194;4.098;2023-04-25T01:50:44;17.40;99.90
14529;DHT22;7351;51.194;4.098;2023-04-25T01:53:13;17.40;99.90
14529;DHT22;7351;51.194;4.098;2023-04-25T01:55:41;17.40;99.90
14529;DHT22;7351;51.194;4.098;2023-04-25T01:58:08;17.40;99.90
14529;DHT22;7351;51.194;4.098;2023-04-25T02:00:38;17.40;99.90
14529;DHT22;7351;51.194;4.098;2023-04-25T02:03:06;17.40;99.90
14529;DHT22;7351;51.194;4.098;2023-04-25T02:05:36;17.40;99.90
14529;DHT22;7351;51.194;4.098;2023-04-25T02:08:05;17.40;99.90
14529;DHT22;7351;51.194;4.098;2023-04-25T02:10:32;17.30;99.90
14529;DHT22;7351;51.194;4.098;2023-04-25T02:13:01;17.40;99.90
14529;DHT22;7351;51.194;4.098;2023-04-25T02:15:28;17.30;99.90
14529;DHT22;7351;51.194;4.098;2023-04-25T02:17:55;17.30;99.90
14529;DHT22;7351;51.194;4.098;2023-04-25T02:20:23;17.30;99.90
14529;DHT22;7351;51.194;4.098;2023-04-25T02:22:51;17.30;99.90
14529;DHT22;7351;51.194;4.098;2023-04-25T02:25:18;17.30;99.90
14529;DHT22;7351;51.194;4.098;2023-04-25T02:27:46;17.30;99.90
14529;DHT22;7351;51.194;4.098;2023-04-25T02:30:15;17.30;99.90
14529;DHT22;7351;51.194;4.098;2023-04-25T02:32:42;17.30;99.90
14529;DHT22;7351;51.194;4.098;2023-04-25T02:35:09;17.30;99.90
14529;DHT22;7351;51.194;4.098;2023-04-25T02:37:39;17.20;99.90
14529;DHT22;7351;51.194;4.098;2023-04-25T02:40:07;17.20;99.90
14529;DHT22;7351;51.194;4.098;2023-04-25T02:42:35;17.30;99.90
14529;DHT22;7351;51.194;4.098;2023-04-25T02:45:02;17.20;99.90
14529;DHT22;7351;51.194;4.098;2023-04-25T02:47:31;17.20;99.90
14529;DHT22;7351;51.194;4.098;2023-04-25T02:49:58;17.20;99.90
14529;DHT22;7351;51.194;4.098;2023-04-25T02:52:25;17.30;99.90
14529;DHT22;7351;51.194;4.098;2023-04-25T02:54:52;17.20;99.90
14529;DHT22;7351;51.194;4.098;2023-04-25T02:57:19;17.30;99.90
14529;DHT22;7351;51.194;4.098;2023-04-25T02:59:46;17.20;99.90
14529;DHT22;7351;51.194;4.098;2023-04-25T03:02:13;17.20;99.90
14529;DHT22;7351;51.194;4.098;2023-04-25T03:04:41;17.20;99.90
14529;DHT22;7351;51.194;4.098;2023-04-25T03:07:08;17.20;99.90
14529;DHT22;7351;51.194;4.098;2023-04-25T03:09:35;17.20;99.90
14529;DHT22;7351;51.194;4.098;2023-04-25T03:12:02;17.20;99.90
14529;DHT22;7351;51.194;4.098;2023-04-25T03:14:29;17.20;99.90
14529;DHT22;7351;51.194;4.098;2023-04-25T03:16:56;17.20;99.90
14529;DHT22;7351;51.194;4.098;2023-04-25T03:19:23;17.20;99.90
14529;DHT22;7351;51.194;4.098;2023-04-25T03:21:51;17.20;99.90
14529;DHT22;7351;51.194;4.098;2023-04-25T03:24:19;17.30;99.90
14529;DHT22;7351;51.194;4.098;2023-04-25T03:26:46;17.40;99.90
14529;DHT22;7351;51.194;4.098;2023-04-25T03:29:13;17.40;99.90
14529;DHT22;7351;51.194;4.098;2023-04-25T03:31:40;17.60;99.90
14529;DHT22;7351;51.194;4.098;2023-04-25T03:34:06;17.70;99.90
14529;DHT22;7351;51.194;4.098;2023-04-25T03:36:33;17.80;99.90
14529;DHT22;7351;51.194;4.098;2023-04-25T03:39:02;17.90;99.90
14529;DHT22;7351;51.194;4.098;2023-04-25T03:41:29;17.90;99.90
14529;DHT22;7351;51.194;4.098;2023-04-25T03:43:56;17.90;99.90
14529;DHT22;7351;51.194;4.098;2023-04-25T03:46:22;18.00;99.90
14529;DHT22;7351;51.194;4.098;2023-04-25T03:48:49;18.10;99.90
14529;DHT22;7351;51.194;4.098;2023-04-25T03:51:16;18.10;99.90
14529;DHT22;7351;51.194;4.098;2023-04-25T03:53:43;18.10;99.90
14529;DHT22;7351;51.194;4.098;2023-04-25T03:56:12;18.20;99.90
14529;DHT22;7351;51.194;4.098;2023-04-25T03:58:38;18.30;99.90
14529;DHT22;7351;51.194;4.098;2023-04-25T04:01:05;18.30;99.90
14529;DHT22;7351;51.194;4.098;2023-04-25T04:03:33;18.30;99.90
14529;DHT22;7351;51.194;4.098;2023-04-25T04:06:01;18.40;99.90
14529;DHT22;7351;51.194;4.098;2023-04-25T04:08:28;18.40;99.90
14529;DHT22;7351;51.194;4.098;2023-04-25T04:10:57;18.40;99.90
14529;DHT22;7351;51.194;4.098;2023-04-25T04:13:25;18.50;99.90
14529;DHT22;7351;51.194;4.098;2023-04-25T04:15:52;18.50;99.90
14529;DHT22;7351;51.194;4.098;2023-04-25T04:18:20;18.60;99.90
14529;DHT22;7351;51.194;4.098;2023-04-25T04:20:47;18.60;99.90
14529;DHT22;7351;51.194;4.098;2023-04-25T04:23:14;18.60;99.90
14529;DHT22;7351;51.194;4.098;2023-04-25T04:25:41;18.60;99.90
14529;DHT22;7351;51.194;4.098;2023-04-25T04:28:08;18.70;99.90
14529;DHT22;7351;51.194;4.098;2023-04-25T04:30:37;18.70;99.90
14529;DHT22;7351;51.194;4.098;2023-04-25T04:33:04;18.70;99.90
14529;DHT22;7351;51.194;4.098;2023-04-25T04:35:32;18.70;99.90
14529;DHT22;7351;51.194;4.098;2023-04-25T04:37:59;18.70;99.90
14529;DHT22;7351;51.194;4.098;2023-04-25T04:40:26;18.70;99.90
14529;DHT22;7351;51.194;4.098;2023-04-25T04:42:53;18.80;99.90
14529;DHT22;7351;51.194;4.098;2023-04-25T04:45:22;18.80;99.90
14529;DHT22;7351;51.194;4.098;2023-04-25T04:47:50;18.80;99.90
14529;DHT22;7351;51.194;4.098;2023-04-25T04:50:17;18.90;99.90
14529;DHT22;7351;51.194;4.098;2023-04-25T04:52:44;18.90;99.90
14529;DHT22;7351;51.194;4.098;2023-04-25T04:55:11;18.90;99.90
14529;DHT22;7351;51.194;4.098;2023-04-25T04:57:38;19.00;99.90
14529;DHT22;7351;51.194;4.098;2023-04-25T05:00:06;19.00;99.90
14529;DHT22;7351;51.194;4.098;2023-04-25T05:02:37;19.00;99.90
14529;DHT22;7351;51.194;4.098;2023-04-25T05:05:06;19.10;99.90
14529;DHT22;7351;51.194;4.098;2023-04-25T05:07:33;19.00;99.90
14529;DHT22;7351;51.194;4.098;2023-04-25T05:10:00;19.10;99.90
14529;DHT22;7351;51.194;4.098;2023-04-25T05:12:27;19.10;99.90
14529;DHT22;7351;51.194;4.098;2023-04-25T05:14:54;19.10;99.90
14529;DHT22;7351;51.194;4.098;2023-04-25T05:17:21;19.10;99.90
14529;DHT22;7351;51.194;4.098;2023-04-25T05:19:48;19.00;99.90
14529;DHT22;7351;51.194;4.098;2023-04-25T05:22:16;19.00;99.90
14529;DHT22;7351;51.194;4.098;2023-04-25T05:24:43;18.90;99.90
14529;DHT22;7351;51.194;4.098;2023-04-25T05:27:10;18.80;99.90
14529;DHT22;7351;51.194;4.098;2023-04-25T05:29:37;18.80;99.90
14529;DHT22;7351;51.194;4.098;2023-04-25T05:32:05;18.80;99.90
14529;DHT22;7351;51.194;4.098;2023-04-25T05:34:33;18.80;99.90
14529;DHT22;7351;51.194;4.098;2023-04-25T05:37:00;18.70;99.90
14529;DHT22;7351;51.194;4.098;2023-04-25T05:39:28;18.70;99.90
14529;DHT22;7351;51.194;4.098;2023-04-25T05:41:55;18.60;99.90
14529;DHT22;7351;51.194;4.098;2023-04-25T05:44:22;18.70;99.90
14529;DHT22;7351;51.194;4.098;2023-04-25T05:46:49;18.60;99.90
14529;DHT22;7351;51.194;4.098;2023-04-25T05:49:16;18.60;99.90
14529;DHT22;7351;51.194;4.098;2023-04-25T05:51:43;18.60;99.90
14529;DHT22;7351;51.194;4.098;2023-04-25T05:54:10;18.60;99.90
14529;DHT22;7351;51.194;4.098;2023-04-25T05:56:38;18.50;99.90
14529;DHT22;7351;51.194;4.098;2023-04-25T05:59:05;18.60;99.90
14529;DHT22;7351;51.194;4.098;2023-04-25T06:01:32;18.60;99.90
14529;DHT22;7351;51.194;4.098;2023-04-25T06:03:59;18.50;99.90
14529;DHT22;7351;51.194;4.098;2023-04-25T06:06:27;18.50;99.90
14529;DHT22;7351;51.194;4.098;2023-04-25T06:08:53;18.50;99.90
14529;DHT22;7351;51.194;4.098;2023-04-25T06:11:21;18.50;99.90
14529;DHT22;7351;51.194;4.098;2023-04-25T06:13:49;18.50;99.90
14529;DHT22;7351;51.194;4.098;2023-04-25T06:16:16;18.40;99.90
14529;DHT22;7351;51.194;4.098;2023-04-25T06:18:43;18.40;99.90
14529;DHT22;7351;51.194;4.098;2023-04-25T06:21:10;18.40;99.90
14529;DHT22;7351;51.194;4.098;2023-04-25T06:23:37;18.40;99.90
14529;DHT22;7351;51.194;4.098;2023-04-25T06:26:04;18.40;99.90
14529;DHT22;7351;51.194;4.098;2023-04-25T06:28:31;18.30;99.90
14529;DHT22;7351;51.194;4.098;2023-04-25T06:30:59;18.30;99.90
14529;DHT22;7351;51.194;4.098;2023-04-25T06:33:26;18.30;99.90
14529;DHT22;7351;51.194;4.098;2023-04-25T06:35:53;18.30;99.90
14529;DHT22;7351;51.194;4.098;2023-04-25T06:38:20;18.30;99.90
14529;DHT22;7351;51.194;4.098;2023-04-25T06:40:47;18.20;99.90
14529;DHT22;7351;51.194;4.098;2023-04-25T06:43:13;18.30;99.90
14529;DHT22;7351;51.194;4.098;2023-04-25T06:45:40;18.20;99.90
14529;DHT22;7351;51.194;4.098;2023-04-25T06:48:09;18.30;99.90
14529;DHT22;7351;51.194;4.098;2023-04-25T06:50:36;18.20;99.90
14529;DHT22;7351;51.194;4.098;2023-04-25T06:53:03;18.20;99.90
14529;DHT22;7351;51.194;4.098;2023-04-25T06:55:30;18.20;99.90
14529;DHT22;7351;51.194;4.098;2023-04-25T06:57:56;18.20;99.90
14529;DHT22;7351;51.194;4.098;2023-04-25T07:00:23;18.20;99.90
14529;DHT22;7351;51.194;4.098;2023-04-25T07:02:52;18.20;99.90
14529;DHT22;7351;51.194;4.098;2023-04-25T07:05:20;18.20;99.90
14529;DHT22;7351;51.194;4.098;2023-04-25T07:07:47;18.20;99.90
14529;DHT22;7351;51.194;4.098;2023-04-25T07:10:14;18.20;99.90
14529;DHT22;7351;51.194;4.098;2023-04-25T07:12:41;18.20;99.90
14529;DHT22;7351;51.194;4.098;2023-04-25T07:15:09;18.20;99.90
14529;DHT22;7351;51.194;4.098;2023-04-25T07:17:37;18.20;99.90
14529;DHT22;7351;51.194;4.098;2023-04-25T07:20:05;18.10;99.90
14529;DHT22;7351;51.194;4.098;2023-04-25T07:22:35;18.10;99.90
14529;DHT22;7351;51.194;4.098;2023-04-25T07:25:02;18.10;99.90
14529;DHT22;7351;51.194;4.098;2023-04-25T07:27:31;18.10;99.90
14529;DHT22;7351;51.194;4.098;2023-04-25T07:29:58;18.10;99.90
14529;DHT22;7351;51.194;4.098;2023-04-25T07:32:25;18.10;99.90
14529;DHT22;7351;51.194;4.098;2023-04-25T07:34:52;18.10;99.90
14529;DHT22;7351;51.194;4.098;2023-04-25T07:37:19;18.10;99.90
14529;DHT22;7351;51.194;4.098;2023-04-25T07:39:48;18.10;99.90
14529;DHT22;7351;51.194;4.098;2023-04-25T07:42:15;18.10;99.90
14529;DHT22;7351;51.194;4.098;2023-04-25T07:44:42;18.10;99.90
14529;DHT22;7351;51.194;4.098;2023-04-25T07:47:09;18.10;99.90
14529;DHT22;7351;51.194;4.098;2023-04-25T07:49:37;18.00;99.90
14529;DHT22;7351;51.194;4.098;2023-04-25T07:52:04;18.00;99.90
14529;DHT22;7351;51.194;4.098;2023-04-25T07:54:32;18.00;99.90
14529;DHT22;7351;51.194;4.098;2023-04-25T07:57:00;18.00;99.90
14529;DHT22;7351;51.194;4.098;2023-04-25T07:59:27;18.00;99.90
14529;DHT22;7351;51.194;4.098;2023-04-25T08:01:55;18.00;99.90
14529;DHT22;7351;51.194;4.098;2023-04-25T08:04:23;18.00;99.90
14529;DHT22;7351;51.194;4.098;2023-04-25T08:06:50;18.00;99.90
14529;DHT22;7351;51.194;4.098;2023-04-25T08:09:18;18.00;99.90
14529;DHT22;7351;51.194;4.098;2023-04-25T08:11:45;18.00;99.90
14529;DHT22;7351;51.194;4.098;2023-04-25T08:14:13;18.00;99.90
14529;DHT22;7351;51.194;4.098;2023-04-25T08:16:40;18.00;99.90
14529;DHT22;7351;51.194;4.098;2023-04-25T08:19:07;18.00;99.90
14529;DHT22;7351;51.194;4.098;2023-04-25T08:21:35;18.00;99.90
14529;DHT22;7351;51.194;4.098;2023-04-25T08:24:01;18.00;99.90
14529;DHT22;7351;51.194;4.098;2023-04-25T08:26:29;18.00;99.90
14529;DHT22;7351;51.194;4.098;2023-04-25T08:28:55;18.00;99.90
14529;DHT22;7351;51.194;4.098;2023-04-25T08:31:24;18.00;99.90
14529;DHT22;7351;51.194;4.098;2023-04-25T08:33:51;18.00;99.90
14529;DHT22;7351;51.194;4.098;2023-04-25T08:36:18;18.00;99.90
14529;DHT22;7351;51.194;4.098;2023-04-25T08:38:45;18.00;99.90
14529;DHT22;7351;51.194;4.098;2023-04-25T08:41:13;18.00;99.90
14529;DHT22;7351;51.194;4.098;2023-04-25T08:43:42;18.00;99.90
14529;DHT22;7351;51.194;4.098;2023-04-25T08:46:09;18.00;99.90
14529;DHT22;7351;51.194;4.098;2023-04-25T08:48:40;18.00;99.90
14529;DHT22;7351;51.194;4.098;2023-04-25T08:51:10;18.00;99.90
14529;DHT22;7351;51.194;4.098;2023-04-25T08:53:42;18.00;99.90
14529;DHT22;7351;51.194;4.098;2023-04-25T08:56:11;18.00;99.90
14529;DHT22;7351;51.194;4.098;2023-04-25T08:58:39;18.00;99.90
14529;DHT22;7351;51.194;4.098;2023-04-25T09:01:06;18.00;99.90
14529;DHT22;7351;51.194;4.098;2023-04-25T09:03:34;18.00;99.90
14529;DHT22;7351;51.194;4.098;2023-04-25T09:06:03;18.00;99.90
14529;DHT22;7351;51.194;4.098;2023-04-25T09:08:30;18.00;99.90
14529;DHT22;7351;51.194;4.098;2023-04-25T09:10:57;18.00;99.90
14529;DHT22;7351;51.194;4.098;2023-04-25T09:13:25;18.00;99.90
14529;DHT22;7351;51.194;4.098;2023-04-25T09:15:55;18.10;99.90
14529;DHT22;7351;51.194;4.098;2023-04-25T09:18:23;18.10;99.90
14529;DHT22;7351;51.194;4.098;2023-04-25T09:20:52;18.10;99.90
14529;DHT22;7351;51.194;4.098;2023-04-25T09:23:21;18.10;99.90
14529;DHT22;7351;51.194;4.098;2023-04-25T09:25:50;18.10;99.90
14529;DHT22;7351;51.194;4.098;2023-04-25T09:28:23;18.10;99.90
14529;DHT22;7351;51.194;4.098;2023-04-25T09:30:54;18.10;99.90
14529;DHT22;7351;51.194;4.098;2023-04-25T09:33:27;18.10;99.90
14529;DHT22;7351;51.194;4.098;2023-04-25T09:36:02;18.20;99.90
14529;DHT22;7351;51.194;4.098;2023-04-25T09:38:32;18.20;99.90
14529;DHT22;7351;51.194;4.098;2023-04-25T09:40:59;18.20;99.90
14529;DHT22;7351;51.194;4.098;2023-04-25T09:43:29;18.10;99.90
14529;DHT22;7351;51.194;4.098;2023-04-25T09:45:56;18.20;99.90
14529;DHT22;7351;51.194;4.098;2023-04-25T09:48:27;18.20;99.90
14529;DHT22;7351;51.194;4.098;2023-04-25T09:51:05;18.20;99.90
14529;DHT22;7351;51.194;4.098;2023-04-25T09:53:34;18.10;99.90
14529;DHT22;7351;51.194;4.098;2023-04-25T09:56:03;18.10;99.90
14529;DHT22;7351;51.194;4.098;2023-04-25T09:58:33;18.20;99.90
14529;DHT22;7351;51.194;4.098;2023-04-25T10:01:02;18.10;99.90
14529;DHT22;7351;51.194;4.098;2023-04-25T10:03:31;18.10;99.90
14529;DHT22;7351;51.194;4.098;2023-04-25T10:06:00;18.10;99.90
14529;DHT22;7351;51.194;4.098;2023-04-25T10:08:31;18.10;99.90
14529;DHT22;7351;51.194;4.098;2023-04-25T10:11:01;18.10;99.90
14529;DHT22;7351;51.194;4.098;2023-04-25T10:13:30;18.10;99.90
14529;DHT22;7351;51.194;4.098;2023-04-25T10:15:57;18.20;99.90
14529;DHT22;7351;51.194;4.098;2023-04-25T10:18:25;18.10;99.90
14529;DHT22;7351;51.194;4.098;2023-04-25T10:20:54;18.20;99.90
14529;DHT22;7351;51.194;4.098;2023-04-25T10:23:21;18.10;99.90
14529;DHT22;7351;51.194;4.098;2023-04-25T10:25:49;18.10;99.90
14529;DHT22;7351;51.194;4.098;2023-04-25T10:28:18;18.10;99.90
14529;DHT22;7351;51.194;4.098;2023-04-25T10:30:58;18.10;99.90
14529;DHT22;7351;51.194;4.098;2023-04-25T10:33:35;18.20;99.90
14529;DHT22;7351;51.194;4.098;2023-04-25T10:36:10;18.20;99.90
14529;DHT22;7351;51.194;4.098;2023-04-25T10:38:38;18.20;99.90
14529;DHT22;7351;51.194;4.098;2023-04-25T10:41:06;18.10;99.90
14529;DHT22;7351;51.194;4.098;2023-04-25T10:43:37;18.20;99.90
14529;DHT22;7351;51.194;4.098;2023-04-25T10:46:17;18.20;99.90
14529;DHT22;7351;51.194;4.098;2023-04-25T10:48:46;18.20;99.90
14529;DHT22;7351;51.194;4.098;2023-04-25T10:51:22;18.30;99.90
14529;DHT22;7351;51.194;4.098;2023-04-25T10:54:00;18.30;99.90
14529;DHT22;7351;51.194;4.098;2023-04-25T10:56:28;18.30;99.90
14529;DHT22;7351;51.194;4.098;2023-04-25T10:59:08;18.30;99.90
14529;DHT22;7351;51.194;4.098;2023-04-25T11:01:40;18.30;99.90
14529;DHT22;7351;51.194;4.098;2023-04-25T11:04:20;18.30;99.90
14529;DHT22;7351;51.194;4.098;2023-04-25T11:07:02;18.40;99.90
14529;DHT22;7351;51.194;4.098;2023-04-25T11:09:33;18.40;99.90
14529;DHT22;7351;51.194;4.098;2023-04-25T11:12:00;18.40;99.90
14529;DHT22;7351;51.194;4.098;2023-04-25T11:14:31;18.50;99.90
14529;DHT22;7351;51.194;4.098;2023-04-25T11:16:59;18.50;99.90
14529;DHT22;7351;51.194;4.098;2023-04-25T11:19:27;18.50;99.90
14529;DHT22;7351;51.194;4.098;2023-04-25T11:21:55;18.40;99.90
14529;DHT22;7351;51.194;4.098;2023-04-25T11:24:26;18.40;99.90
14529;DHT22;7351;51.194;4.098;2023-04-25T11:26:53;18.50;99.90
14529;DHT22;7351;51.194;4.098;2023-04-25T11:29:22;18.50;99.90
14529;DHT22;7351;51.194;4.098;2023-04-25T11:31:50;18.50;99.90
14529;DHT22;7351;51.194;4.098;2023-04-25T11:34:18;18.50;99.90
14529;DHT22;7351;51.194;4.098;2023-04-25T11:36:45;18.50;99.90
14529;DHT22;7351;51.194;4.098;2023-04-25T11:39:12;18.60;99.90
14529;DHT22;7351;51.194;4.098;2023-04-25T11:41:41;18.60;99.90
14529;DHT22;7351;51.194;4.098;2023-04-25T11:44:08;18.60;99.90
14529;DHT22;7351;51.194;4.098;2023-04-25T11:46:35;18.60;99.90
14529;DHT22;7351;51.194;4.098;2023-04-25T11:49:03;18.60;99.90
14529;DHT22;7351;51.194;4.098;2023-04-25T11:51:38;18.60;99.90
14529;DHT22;7351;51.194;4.098;2023-04-25T11:54:05;18.60;99.90
14529;DHT22;7351;51.194;4.098;2023-04-25T11:56:32;18.60;99.90
14529;DHT22;7351;51.194;4.098;2023-04-25T11:59:00;18.60;99.90
14529;DHT22;7351;51.194;4.098;2023-04-25T12:01:29;18.60;99.90
14529;DHT22;7351;51.194;4.098;2023-04-25T12:03:56;18.60;99.90
14529;DHT22;7351;51.194;4.098;2023-04-25T12:06:27;18.60;99.90
14529;DHT22;7351;51.194;4.098;2023-04-25T12:09:02;18.60;99.90
14529;DHT22;7351;51.194;4.098;2023-04-25T12:11:30;18.60;99.90
14529;DHT22;7351;51.194;4.098;2023-04-25T12:14:02;18.60;99.90
14529;DHT22;7351;51.194;4.098;2023-04-25T12:16:29;18.60;99.90
14529;DHT22;7351;51.194;4.098;2023-04-25T12:18:56;18.60;99.90
14529;DHT22;7351;51.194;4.098;2023-04-25T12:21:29;18.60;99.90
14529;DHT22;7351;51.194;4.098;2023-04-25T12:24:09;18.60;99.90
14529;DHT22;7351;51.194;4.098;2023-04-25T12:26:49;18.60;99.90
14529;DHT22;7351;51.194;4.098;2023-04-25T12:29:21;18.60;99.90
14529;DHT22;7351;51.194;4.098;2023-04-25T12:31:49;18.60;99.90
14529;DHT22;7351;51.194;4.098;2023-04-25T12:34:16;18.50;99.90
14529;DHT22;7351;51.194;4.098;2023-04-25T12:36:45;18.50;99.90
14529;DHT22;7351;51.194;4.098;2023-04-25T12:39:16;18.60;99.90
14529;DHT22;7351;51.194;4.098;2023-04-25T12:41:43;18.60;99.90
14529;DHT22;7351;51.194;4.098;2023-04-25T12:44:10;18.60;99.90
14529;DHT22;7351;51.194;4.098;2023-04-25T12:46:38;18.60;99.90
14529;DHT22;7351;51.194;4.098;2023-04-25T12:49:05;18.70;99.90
14529;DHT22;7351;51.194;4.098;2023-04-25T12:51:33;18.70;99.90
14529;DHT22;7351;51.194;4.098;2023-04-25T12:54:02;18.70;99.90
14529;DHT22;7351;51.194;4.098;2023-04-25T12:56:30;18.70;99.90
14529;DHT22;7351;51.194;4.098;2023-04-25T12:58:57;18.70;99.90
14529;DHT22;7351;51.194;4.098;2023-04-25T13:01:24;18.70;99.90
14529;DHT22;7351;51.194;4.098;2023-04-25T13:03:52;18.80;99.90
14529;DHT22;7351;51.194;4.098;2023-04-25T13:06:20;18.80;99.90
14529;DHT22;7351;51.194;4.098;2023-04-25T13:08:47;18.80;99.90
14529;DHT22;7351;51.194;4.098;2023-04-25T13:11:15;18.90;99.90
14529;DHT22;7351;51.194;4.098;2023-04-25T13:13:43;18.90;99.90
14529;DHT22;7351;51.194;4.098;2023-04-25T13:16:10;18.90;99.90
14529;DHT22;7351;51.194;4.098;2023-04-25T13:18:39;18.90;99.90
14529;DHT22;7351;51.194;4.098;2023-04-25T13:21:06;19.00;99.90
14529;DHT22;7351;51.194;4.098;2023-04-25T13:23:33;19.00;99.90
14529;DHT22;7351;51.194;4.098;2023-04-25T13:26:00;19.00;99.90
14529;DHT22;7351;51.194;4.098;2023-04-25T13:28:28;19.10;99.90
14529;DHT22;7351;51.194;4.098;2023-04-25T13:30:56;19.10;99.90
14529;DHT22;7351;51.194;4.098;2023-04-25T13:33:23;19.10;99.90
14529;DHT22;7351;51.194;4.098;2023-04-25T13:35:51;19.10;99.90
14529;DHT22;7351;51.194;4.098;2023-04-25T13:38:22;19.20;99.90
14529;DHT22;7351;51.194;4.098;2023-04-25T13:40:49;19.10;99.90
14529;DHT22;7351;51.194;4.098;2023-04-25T13:43:18;19.20;99.90
14529;DHT22;7351;51.194;4.098;2023-04-25T13:45:46;19.20;99.90
14529;DHT22;7351;51.194;4.098;2023-04-25T13:48:13;19.20;99.90
14529;DHT22;7351;51.194;4.098;2023-04-25T13:50:40;19.20;99.90
14529;DHT22;7351;51.194;4.098;2023-04-25T13:53:07;19.30;99.90
14529;DHT22;7351;51.194;4.098;2023-04-25T13:55:34;19.30;99.90
14529;DHT22;7351;51.194;4.098;2023-04-25T13:58:02;19.30;99.90
14529;DHT22;7351;51.194;4.098;2023-04-25T14:00:34;19.30;99.90
14529;DHT22;7351;51.194;4.098;2023-04-25T14:03:02;19.40;99.90
14529;DHT22;7351;51.194;4.098;2023-04-25T14:05:33;19.40;99.90
14529;DHT22;7351;51.194;4.098;2023-04-25T14:08:04;19.40;99.90
14529;DHT22;7351;51.194;4.098;2023-04-25T14:10:31;19.50;99.90
14529;DHT22;7351;51.194;4.098;2023-04-25T14:12:58;19.40;99.90
14529;DHT22;7351;51.194;4.098;2023-04-25T14:15:26;19.50;99.90
14529;DHT22;7351;51.194;4.098;2023-04-25T14:17:53;19.60;99.90
14529;DHT22;7351;51.194;4.098;2023-04-25T14:20:21;19.60;99.90
14529;DHT22;7351;51.194;4.098;2023-04-25T14:22:49;19.60;99.90
14529;DHT22;7351;51.194;4.098;2023-04-25T14:25:17;19.70;99.90
14529;DHT22;7351;51.194;4.098;2023-04-25T14:27:44;19.60;99.90
14529;DHT22;7351;51.194;4.098;2023-04-25T14:30:15;19.70;99.90
14529;DHT22;7351;51.194;4.098;2023-04-25T14:32:42;19.80;99.90
14529;DHT22;7351;51.194;4.098;2023-04-25T14:35:09;19.80;99.90
14529;DHT22;7351;51.194;4.098;2023-04-25T14:37:38;19.80;99.90
14529;DHT22;7351;51.194;4.098;2023-04-25T14:40:05;19.80;99.90
14529;DHT22;7351;51.194;4.098;2023-04-25T14:42:34;19.90;99.90
14529;DHT22;7351;51.194;4.098;2023-04-25T14:45:02;19.90;99.90
14529;DHT22;7351;51.194;4.098;2023-04-25T14:47:29;20.00;99.90
14529;DHT22;7351;51.194;4.098;2023-04-25T14:49:56;20.00;99.90
14529;DHT22;7351;51.194;4.098;2023-04-25T14:52:23;20.00;99.90
14529;DHT22;7351;51.194;4.098;2023-04-25T14:54:52;19.90;99.90
14529;DHT22;7351;51.194;4.098;2023-04-25T14:57:19;20.00;99.90
14529;DHT22;7351;51.194;4.098;2023-04-25T14:59:46;20.00;99.90
14529;DHT22;7351;51.194;4.098;2023-04-25T15:02:13;20.00;99.90
14529;DHT22;7351;51.194;4.098;2023-04-25T15:04:40;20.10;99.90
14529;DHT22;7351;51.194;4.098;2023-04-25T15:07:07;20.10;99.90
14529;DHT22;7351;51.194;4.098;2023-04-25T15:09:34;20.10;99.90
14529;DHT22;7351;51.194;4.098;2023-04-25T15:12:02;20.10;99.90
14529;DHT22;7351;51.194;4.098;2023-04-25T15:14:29;20.10;99.90
14529;DHT22;7351;51.194;4.098;2023-04-25T15:16:56;20.10;99.90
14529;DHT22;7351;51.194;4.098;2023-04-25T15:19:23;20.10;99.90
14529;DHT22;7351;51.194;4.098;2023-04-25T15:21:50;20.20;99.90
14529;DHT22;7351;51.194;4.098;2023-04-25T15:24:17;20.20;99.90
14529;DHT22;7351;51.194;4.098;2023-04-25T15:26:44;20.20;99.90
14529;DHT22;7351;51.194;4.098;2023-04-25T15:29:13;20.20;99.90
14529;DHT22;7351;51.194;4.098;2023-04-25T15:31:41;20.30;99.90
14529;DHT22;7351;51.194;4.098;2023-04-25T15:34:07;20.30;99.90
14529;DHT22;7351;51.194;4.098;2023-04-25T15:36:34;20.30;99.90
14529;DHT22;7351;51.194;4.098;2023-04-25T15:39:01;20.20;99.90
14529;DHT22;7351;51.194;4.098;2023-04-25T15:41:29;20.30;99.90
14529;DHT22;7351;51.194;4.098;2023-04-25T15:43:59;20.30;99.90
14529;DHT22;7351;51.194;4.098;2023-04-25T15:46:28;20.30;99.90
14529;DHT22;7351;51.194;4.098;2023-04-25T15:48:56;20.20;99.90
14529;DHT22;7351;51.194;4.098;2023-04-25T15:51:23;20.20;99.90